Time;durP1;ratioP1;P1;durP2;ratioP2;P2;SDS_P1;SDS_P2;PMS_P1;PMS_P2;Temp;Humidity;BMP_temperature;BMP_pressure;BME280_temperature;BME280_humidity;BME280_pressure;Samples;Min_cycle;Max_cycle;Signal;HPM_P1;HPM_P2
2023/03/10 00:02:03;;;;;;;;;;;1.50;99.90;;;;;;5096120;28;19947;-49
2023/03/10 00:04:29;;;;;;;;;;;1.50;99.90;;;;;;5095695;28;19912;-48
2023/03/10 00:06:54;;;;;;;;;;;1.50;99.90;;;;;;5096359;28;19981;-45
2023/03/10 00:09:20;;;;;;;;;;;1.50;99.90;;;;;;5095886;28;20354;-45
2023/03/10 00:11:46;;;;;;;;;;;1.50;99.90;;;;;;5095493;28;19912;-46
2023/03/10 00:14:11;;;;;;;;;;;1.50;99.90;;;;;;5096126;28;19914;-48
2023/03/10 00:16:37;;;;;;;;;;;1.50;99.90;;;;;;5095284;28;19931;-48
2023/03/10 00:19:02;;;;;;;;;;;1.50;99.90;;;;;;5096080;28;19915;-49
2023/03/10 00:21:30;;;;;;;;;;;1.50;99.90;;;;;;5096239;28;20283;-47
2023/03/10 00:23:55;;;;;;;;;;;1.50;99.90;;;;;;5095301;28;20274;-49
2023/03/10 00:26:22;;;;;;;;;;;1.50;99.90;;;;;;5096084;28;20004;-46
2023/03/10 00:28:48;;;;;;;;;;;1.50;99.90;;;;;;5078297;28;19912;-45
2023/03/10 00:31:15;;;;;;;;;;;1.50;99.90;;;;;;5074887;28;20378;-47
2023/03/10 00:33:41;;;;;;;;;;;1.50;99.90;;;;;;5075647;28;19995;-47
2023/03/10 00:36:07;;;;;;;;;;;1.50;99.90;;;;;;5075659;28;19947;-48
2023/03/10 00:38:34;;;;;;;;;;;1.50;99.90;;;;;;5074656;28;19916;-47
2023/03/10 00:41:00;;;;;;;;;;;1.50;99.90;;;;;;5074254;28;19940;-46
2023/03/10 00:43:25;;;;;;;;;;;1.50;99.90;;;;;;5075409;28;19995;-46
2023/03/10 00:45:51;;;;;;;;;;;1.50;99.90;;;;;;5074563;28;20011;-47
2023/03/10 00:48:16;;;;;;;;;;;1.50;99.90;;;;;;5075105;28;19964;-45
2023/03/10 00:50:42;;;;;;;;;;;1.50;99.90;;;;;;5075181;28;19916;-46
2023/03/10 00:53:07;;;;;;;;;;;1.50;99.90;;;;;;5074561;28;19909;-46
2023/03/10 00:55:33;;;;;;;;;;;1.50;99.90;;;;;;5074976;28;19962;-47
2023/03/10 00:57:58;;;;;;;;;;;1.50;99.90;;;;;;5075115;28;19952;-47
2023/03/10 01:00:24;;;;;;;;;;;1.50;99.90;;;;;;5074105;28;19927;-45
2023/03/10 01:02:51;;;;;;;;;;;1.50;99.90;;;;;;5074952;28;19912;-47
2023/03/10 01:05:17;;;;;;;;;;;1.50;99.90;;;;;;5074601;28;19954;-47
2023/03/10 01:07:42;;;;;;;;;;;1.50;99.90;;;;;;5074502;28;19971;-46
2023/03/10 01:10:08;;;;;;;;;;;1.50;99.90;;;;;;5074666;28;19921;-45
2023/03/10 01:12:34;;;;;;;;;;;1.50;99.90;;;;;;5074504;28;19920;-46
2023/03/10 01:14:59;;;;;;;;;;;1.50;99.90;;;;;;5074427;28;20332;-47
2023/03/10 01:17:25;;;;;;;;;;;1.50;99.90;;;;;;5074631;28;19916;-49
2023/03/10 01:19:50;;;;;;;;;;;1.50;99.90;;;;;;5073947;28;19995;-45
2023/03/10 01:22:15;;;;;;;;;;;1.50;99.90;;;;;;5093898;28;20359;-45
2023/03/10 01:24:41;;;;;;;;;;;1.50;99.90;;;;;;5094722;28;19912;-45
2023/03/10 01:27:06;;;;;;;;;;;1.50;99.90;;;;;;5094044;28;19908;-49
2023/03/10 01:29:32;;;;;;;;;;;1.50;99.90;;;;;;5094503;28;19916;-46
2023/03/10 01:31:57;;;;;;;;;;;1.50;99.90;;;;;;5094649;28;19908;-48
2023/03/10 01:34:23;;;;;;;;;;;1.50;99.90;;;;;;5093858;28;20002;-47
2023/03/10 01:36:48;;;;;;;;;;;1.50;99.90;;;;;;5094528;28;20290;-47
2023/03/10 01:39:14;;;;;;;;;;;1.50;99.90;;;;;;5094299;28;19995;-46
2023/03/10 01:41:39;;;;;;;;;;;1.50;99.90;;;;;;5093788;28;19957;-47
2023/03/10 01:44:11;;;;;;;;;;;1.50;99.90;;;;;;5094505;28;19915;-46
2023/03/10 01:46:37;;;;;;;;;;;1.50;99.90;;;;;;5094005;28;20042;-48
2023/03/10 01:49:08;;;;;;;;;;;1.50;99.90;;;;;;5093603;28;20018;-47
2023/03/10 01:51:34;;;;;;;;;;;1.50;99.90;;;;;;5094105;28;20367;-47
2023/03/10 01:54:01;;;;;;;;;;;1.50;99.90;;;;;;5094222;28;20389;-44
2023/03/10 01:56:26;;;;;;;;;;;1.50;99.90;;;;;;5091717;28;20006;-48
2023/03/10 01:58:52;;;;;;;;;;;1.50;99.90;;;;;;5073724;28;19993;-46
2023/03/10 02:01:18;;;;;;;;;;;1.50;99.90;;;;;;5073645;28;19908;-47
2023/03/10 02:03:48;;;;;;;;;;;1.50;99.90;;;;;;5073230;28;20278;-47
2023/03/10 02:06:18;;;;;;;;;;;1.50;99.90;;;;;;5073665;28;19909;-47
2023/03/10 02:08:46;;;;;;;;;;;1.50;99.90;;;;;;5073542;28;19912;-45
2023/03/10 02:11:12;;;;;;;;;;;1.50;99.90;;;;;;5073012;28;20286;-46
2023/03/10 02:13:38;;;;;;;;;;;1.50;99.90;;;;;;5073824;28;20004;-47
2023/03/10 02:16:04;;;;;;;;;;;1.50;99.90;;;;;;5072801;28;19991;-46
2023/03/10 02:18:29;;;;;;;;;;;1.50;99.90;;;;;;5073438;28;20534;-49
2023/03/10 02:21:07;;;;;;;;;;;1.50;99.90;;;;;;5073372;28;19909;-49
2023/03/10 02:23:32;;;;;;;;;;;1.60;99.90;;;;;;5072731;28;19966;-49
2023/03/10 02:26:04;;;;;;;;;;;1.50;99.90;;;;;;5073562;28;19948;-46
2023/03/10 02:28:29;;;;;;;;;;;1.50;99.90;;;;;;5073336;28;19912;-49
2023/03/10 02:30:55;;;;;;;;;;;1.60;99.90;;;;;;5072440;28;19979;-46
2023/03/10 02:33:29;;;;;;;;;;;1.50;99.90;;;;;;5087816;28;19965;-48
2023/03/10 02:36:01;;;;;;;;;;;1.50;99.90;;;;;;5093345;28;19908;-49
2023/03/10 02:38:27;;;;;;;;;;;1.60;99.90;;;;;;5074968;28;19916;-47
2023/03/10 02:40:54;;;;;;;;;;;1.50;99.90;;;;;;5073023;28;19908;-48
2023/03/10 02:43:23;;;;;;;;;;;1.60;99.90;;;;;;5072908;28;19952;-46
2023/03/10 02:45:49;;;;;;;;;;;1.60;99.90;;;;;;5072322;28;19920;-47
2023/03/10 02:48:43;;;;;;;;;;;1.50;99.90;;;;;;5073174;28;19912;-48
2023/03/10 02:51:15;;;;;;;;;;;1.50;99.90;;;;;;5058782;28;20004;-49
2023/03/10 02:53:40;;;;;;;;;;;1.50;99.90;;;;;;5074020;28;19919;-47
2023/03/10 02:56:06;;;;;;;;;;;1.60;99.90;;;;;;5073141;28;19909;-45
2023/03/10 02:58:32;;;;;;;;;;;1.60;99.90;;;;;;5072117;28;19955;-49
2023/03/10 03:00:57;;;;;;;;;;;1.60;99.90;;;;;;5072615;28;20279;-48
2023/03/10 03:03:23;;;;;;;;;;;1.60;99.90;;;;;;5072806;28;19951;-47
2023/03/10 03:05:48;;;;;;;;;;;1.60;99.90;;;;;;5071379;28;19977;-46
2023/03/10 03:08:14;;;;;;;;;;;1.60;99.90;;;;;;5072975;28;20423;-48
2023/03/10 03:10:40;;;;;;;;;;;1.60;99.90;;;;;;5072578;28;19920;-47
2023/03/10 03:13:06;;;;;;;;;;;1.60;99.90;;;;;;5071892;28;20034;-48
2023/03/10 03:15:31;;;;;;;;;;;1.60;99.90;;;;;;5072636;28;19909;-48
2023/03/10 03:17:57;;;;;;;;;;;1.60;99.90;;;;;;5084174;28;20000;-49
2023/03/10 03:20:23;;;;;;;;;;;1.60;99.90;;;;;;5092057;28;19944;-49
2023/03/10 03:22:49;;;;;;;;;;;1.60;99.90;;;;;;5092996;28;19915;-50
2023/03/10 03:25:16;;;;;;;;;;;1.60;99.90;;;;;;5092720;28;20397;-54
2023/03/10 03:27:42;;;;;;;;;;;1.60;99.90;;;;;;5092075;28;19962;-47
2023/03/10 03:30:12;;;;;;;;;;;1.60;99.90;;;;;;5093075;28;20002;-50
2023/03/10 03:32:37;;;;;;;;;;;1.60;99.90;;;;;;5092310;28;19991;-50
2023/03/10 03:35:04;;;;;;;;;;;1.60;99.90;;;;;;5092185;28;20347;-51
2023/03/10 03:37:29;;;;;;;;;;;1.60;99.90;;;;;;5092575;28;19962;-49
2023/03/10 03:39:55;;;;;;;;;;;1.60;99.90;;;;;;5092379;28;20320;-51
2023/03/10 03:42:20;;;;;;;;;;;1.60;99.90;;;;;;5091669;28;19919;-49
2023/03/10 03:44:47;;;;;;;;;;;1.60;99.90;;;;;;5092913;28;19915;-48
2023/03/10 03:47:12;;;;;;;;;;;1.60;99.90;;;;;;5092599;28;19931;-49
2023/03/10 03:49:38;;;;;;;;;;;1.60;99.90;;;;;;5091989;28;20264;-50
2023/03/10 03:52:04;;;;;;;;;;;1.60;99.90;;;;;;5092280;28;20394;-46
2023/03/10 03:54:29;;;;;;;;;;;1.60;99.90;;;;;;5091683;28;19909;-47
2023/03/10 03:56:55;;;;;;;;;;;1.60;99.90;;;;;;5092416;28;19915;-50
2023/03/10 03:59:20;;;;;;;;;;;1.60;99.90;;;;;;5092218;28;20420;-47
2023/03/10 04:01:46;;;;;;;;;;;1.60;99.90;;;;;;5091738;28;19908;-48
2023/03/10 04:04:11;;;;;;;;;;;1.60;99.90;;;;;;5092419;28;19908;-49
2023/03/10 04:06:37;;;;;;;;;;;1.60;99.90;;;;;;5092580;28;19908;-49
2023/03/10 04:09:03;;;;;;;;;;;1.60;99.90;;;;;;5091482;28;20424;-48
2023/03/10 04:11:28;;;;;;;;;;;1.60;99.90;;;;;;5091898;28;19959;-51
2023/03/10 04:13:54;;;;;;;;;;;1.60;99.90;;;;;;5092592;28;19908;-49
2023/03/10 04:16:19;;;;;;;;;;;1.60;99.90;;;;;;5093493;28;20386;-49
2023/03/10 04:18:45;;;;;;;;;;;1.60;99.90;;;;;;5096067;28;19908;-46
2023/03/10 04:21:10;;;;;;;;;;;1.60;99.90;;;;;;5095943;28;19995;-46
2023/03/10 04:23:36;;;;;;;;;;;1.60;99.90;;;;;;5095212;28;20299;-47
2023/03/10 04:26:05;;;;;;;;;;;1.60;99.90;;;;;;5095924;28;19916;-49
2023/03/10 04:28:31;;;;;;;;;;;1.60;99.90;;;;;;5095658;28;19908;-46
2023/03/10 04:30:56;;;;;;;;;;;1.60;99.90;;;;;;5095343;28;20418;-48
2023/03/10 04:33:22;;;;;;;;;;;1.60;99.90;;;;;;5095773;28;19917;-45
2023/03/10 04:35:47;;;;;;;;;;;1.60;99.90;;;;;;5095724;28;19908;-46
2023/03/10 04:38:13;;;;;;;;;;;1.60;99.90;;;;;;5095030;28;20420;-45
2023/03/10 04:40:39;;;;;;;;;;;1.60;99.90;;;;;;5081504;28;19939;-49
2023/03/10 04:43:04;;;;;;;;;;;1.60;99.90;;;;;;5075251;28;19909;-46
2023/03/10 04:45:30;;;;;;;;;;;1.60;99.90;;;;;;5074564;28;20358;-46
2023/03/10 04:47:55;;;;;;;;;;;1.60;99.90;;;;;;5075292;28;19912;-48
2023/03/10 04:50:21;;;;;;;;;;;1.60;99.90;;;;;;5074921;28;19917;-47
2023/03/10 04:52:48;;;;;;;;;;;1.50;99.90;;;;;;5074609;28;20355;-50
2023/03/10 04:55:14;;;;;;;;;;;1.60;99.90;;;;;;5075101;28;20358;-48
2023/03/10 04:57:39;;;;;;;;;;;1.50;99.90;;;;;;5074914;28;19912;-48
2023/03/10 05:00:06;;;;;;;;;;;1.60;99.90;;;;;;5074236;28;19947;-45
2023/03/10 05:02:32;;;;;;;;;;;1.60;99.90;;;;;;5074992;28;20462;-45
2023/03/10 05:05:00;;;;;;;;;;;1.50;99.90;;;;;;5089260;28;19915;-45
2023/03/10 05:07:26;;;;;;;;;;;1.60;99.90;;;;;;5102580;28;19931;-49
2023/03/10 05:09:51;;;;;;;;;;;1.50;99.90;;;;;;5104791;28;19916;-49
2023/03/10 05:12:17;;;;;;;;;;;1.50;99.90;;;;;;5102237;28;20268;-47
2023/03/10 05:14:42;;;;;;;;;;;1.50;99.90;;;;;;5103506;28;19912;-47
2023/03/10 05:17:07;;;;;;;;;;;1.50;99.90;;;;;;5104439;28;19915;-51
2023/03/10 05:19:33;;;;;;;;;;;1.50;99.90;;;;;;5101902;28;19915;-48
2023/03/10 05:21:59;;;;;;;;;;;1.50;99.90;;;;;;5103578;28;19908;-47
2023/03/10 05:24:25;;;;;;;;;;;1.50;99.90;;;;;;5104208;28;19915;-48
2023/03/10 05:26:50;;;;;;;;;;;1.50;99.90;;;;;;5101317;28;19912;-49
2023/03/10 05:29:16;;;;;;;;;;;1.50;99.90;;;;;;5103632;28;20386;-52
2023/03/10 05:31:41;;;;;;;;;;;1.50;99.90;;;;;;5103358;28;19908;-48
2023/03/10 05:34:07;;;;;;;;;;;1.50;99.90;;;;;;5101858;28;19968;-48
2023/03/10 05:36:32;;;;;;;;;;;1.50;99.90;;;;;;5103608;28;19962;-50
2023/03/10 05:38:58;;;;;;;;;;;1.50;99.90;;;;;;5102697;28;19993;-48
2023/03/10 05:41:23;;;;;;;;;;;1.50;99.90;;;;;;5095129;28;19989;-49
2023/03/10 05:43:49;;;;;;;;;;;1.50;99.90;;;;;;5094214;28;19912;-47
2023/03/10 05:46:14;;;;;;;;;;;1.50;99.90;;;;;;5094161;28;20354;-48
2023/03/10 05:48:40;;;;;;;;;;;1.50;99.90;;;;;;5094010;28;19957;-48
2023/03/10 05:51:06;;;;;;;;;;;1.50;99.90;;;;;;5094213;28;20350;-45
2023/03/10 05:53:32;;;;;;;;;;;1.50;99.90;;;;;;5093754;28;20078;-47
2023/03/10 05:55:58;;;;;;;;;;;1.40;99.90;;;;;;5093805;28;20010;-44
2023/03/10 05:58:24;;;;;;;;;;;1.40;99.90;;;;;;5094126;28;19912;-46
2023/03/10 06:00:50;;;;;;;;;;;1.40;99.90;;;;;;5111586;28;19926;-46
2023/03/10 06:03:15;;;;;;;;;;;1.40;99.90;;;;;;5086762;28;19919;-46
2023/03/10 06:05:41;;;;;;;;;;;1.40;99.90;;;;;;5085522;28;19931;-46
2023/03/10 06:08:06;;;;;;;;;;;1.40;99.90;;;;;;5072748;28;19966;-46
2023/03/10 06:10:32;;;;;;;;;;;1.40;99.90;;;;;;5073675;28;19982;-47
2023/03/10 06:12:57;;;;;;;;;;;1.40;99.90;;;;;;5073663;28;19996;-47
2023/03/10 06:15:23;;;;;;;;;;;1.50;99.90;;;;;;5072706;28;19916;-45
2023/03/10 06:17:48;;;;;;;;;;;1.40;99.90;;;;;;5055672;28;19908;-45
2023/03/10 06:20:14;;;;;;;;;;;1.40;99.90;;;;;;5073460;28;19961;-46
2023/03/10 06:22:40;;;;;;;;;;;1.40;99.90;;;;;;5072686;28;19908;-48
2023/03/10 06:25:05;;;;;;;;;;;1.50;99.90;;;;;;5073284;28;19909;-47
2023/03/10 06:27:31;;;;;;;;;;;1.50;99.90;;;;;;5073293;28;19938;-48
2023/03/10 06:29:57;;;;;;;;;;;1.40;99.90;;;;;;5072482;28;20386;-46
2023/03/10 06:32:22;;;;;;;;;;;1.40;99.90;;;;;;5073425;28;19909;-48
2023/03/10 06:34:48;;;;;;;;;;;1.50;99.90;;;;;;5072792;28;19908;-48
2023/03/10 06:37:13;;;;;;;;;;;1.50;99.90;;;;;;5072399;28;19912;-47
2023/03/10 06:39:39;;;;;;;;;;;1.50;99.90;;;;;;5072230;28;20279;-46
2023/03/10 06:42:05;;;;;;;;;;;1.50;99.90;;;;;;5072955;28;19916;-46
2023/03/10 06:44:30;;;;;;;;;;;1.50;99.90;;;;;;5073867;28;19963;-47
2023/03/10 06:46:56;;;;;;;;;;;1.50;99.90;;;;;;5093025;28;19912;-45
2023/03/10 06:49:21;;;;;;;;;;;1.50;99.90;;;;;;5092877;28;19916;-49
2023/03/10 06:51:47;;;;;;;;;;;1.50;99.90;;;;;;5077884;28;19912;-50
2023/03/10 06:54:12;;;;;;;;;;;1.50;99.90;;;;;;5072848;28;19961;-47
2023/03/10 06:56:38;;;;;;;;;;;1.60;99.90;;;;;;5072891;28;20398;-51
2023/03/10 06:59:03;;;;;;;;;;;1.60;99.90;;;;;;5072172;28;19927;-51
2023/03/10 07:01:30;;;;;;;;;;;1.50;99.90;;;;;;5072919;28;19982;-52
2023/03/10 07:03:56;;;;;;;;;;;1.60;99.90;;;;;;5072793;28;19938;-49
2023/03/10 07:06:22;;;;;;;;;;;1.60;99.90;;;;;;5072394;28;19912;-48
2023/03/10 07:08:48;;;;;;;;;;;1.60;99.90;;;;;;5072822;28;19908;-50
2023/03/10 07:11:13;;;;;;;;;;;1.60;99.90;;;;;;5072324;28;19916;-50
2023/03/10 07:13:39;;;;;;;;;;;1.70;99.90;;;;;;5083649;28;19919;-50
2023/03/10 07:16:05;;;;;;;;;;;1.70;99.90;;;;;;5092863;28;19908;-52
2023/03/10 07:18:31;;;;;;;;;;;1.70;99.90;;;;;;5092106;28;19916;-48
2023/03/10 07:20:57;;;;;;;;;;;1.70;99.90;;;;;;5092795;28;20363;-49
2023/03/10 07:23:23;;;;;;;;;;;1.80;99.90;;;;;;5092694;28;19908;-51
2023/03/10 07:25:55;;;;;;;;;;;1.80;99.90;;;;;;5091980;28;19912;-53
2023/03/10 07:28:21;;;;;;;;;;;1.80;99.90;;;;;;5092666;28;19916;-52
2023/03/10 07:30:48;;;;;;;;;;;1.80;99.90;;;;;;5092923;28;19916;-49
2023/03/10 07:33:13;;;;;;;;;;;1.80;99.90;;;;;;5091808;28;20268;-52
2023/03/10 07:35:39;;;;;;;;;;;1.80;99.90;;;;;;5092960;28;19915;-54
2023/03/10 07:38:04;;;;;;;;;;;1.90;99.90;;;;;;5092445;28;19931;-50
2023/03/10 07:40:30;;;;;;;;;;;1.90;99.90;;;;;;5092072;28;19916;-53
2023/03/10 07:42:55;;;;;;;;;;;1.90;99.90;;;;;;5092625;28;19908;-51
2023/03/10 07:45:21;;;;;;;;;;;1.90;99.90;;;;;;5092287;28;19958;-52
2023/03/10 07:47:48;;;;;;;;;;;1.90;99.90;;;;;;5092092;28;19916;-50
2023/03/10 07:50:14;;;;;;;;;;;1.90;99.90;;;;;;5092687;28;19916;-51
2023/03/10 07:52:39;;;;;;;;;;;1.90;99.90;;;;;;5096307;28;20283;-52
2023/03/10 07:55:05;;;;;;;;;;;1.90;99.90;;;;;;5095323;28;19912;-50
2023/03/10 07:57:30;;;;;;;;;;;1.90;99.90;;;;;;5096382;28;19912;-52
2023/03/10 07:59:56;;;;;;;;;;;1.90;99.90;;;;;;5095984;28;20316;-51
2023/03/10 08:02:21;;;;;;;;;;;1.90;99.90;;;;;;5093572;28;19912;-53
2023/03/10 08:04:47;;;;;;;;;;;1.90;99.90;;;;;;5082743;28;19920;-51
2023/03/10 08:07:12;;;;;;;;;;;2.00;99.90;;;;;;5091260;28;19908;-50
2023/03/10 08:09:38;;;;;;;;;;;2.00;99.90;;;;;;5094492;28;19916;-53
2023/03/10 08:12:04;;;;;;;;;;;2.00;99.90;;;;;;5088344;28;19908;-51
2023/03/10 08:14:30;;;;;;;;;;;2.00;99.90;;;;;;5095798;28;20006;-50
2023/03/10 08:16:55;;;;;;;;;;;2.00;99.90;;;;;;5080935;28;19912;-50
2023/03/10 08:19:22;;;;;;;;;;;2.00;99.90;;;;;;5075617;28;19920;-52
2023/03/10 08:21:47;;;;;;;;;;;2.10;99.90;;;;;;5077259;28;19913;-53
2023/03/10 08:24:13;;;;;;;;;;;2.10;99.90;;;;;;5086880;28;19919;-52
2023/03/10 08:26:38;;;;;;;;;;;2.10;99.90;;;;;;5085579;28;19912;-51
2023/03/10 08:29:04;;;;;;;;;;;2.10;99.90;;;;;;5084336;28;20349;-51
2023/03/10 08:31:29;;;;;;;;;;;2.20;99.90;;;;;;5088787;28;19917;-52
2023/03/10 08:33:56;;;;;;;;;;;2.20;99.90;;;;;;5084584;28;19920;-52
2023/03/10 08:36:24;;;;;;;;;;;2.10;99.90;;;;;;5082146;28;19912;-52
2023/03/10 08:38:52;;;;;;;;;;;2.10;99.90;;;;;;5094176;28;19908;-51
2023/03/10 08:41:18;;;;;;;;;;;2.20;99.90;;;;;;5084794;28;19912;-53
2023/03/10 08:43:43;;;;;;;;;;;2.10;99.90;;;;;;5082316;28;19977;-51
2023/03/10 08:46:09;;;;;;;;;;;2.10;99.90;;;;;;5084526;28;19960;-53
2023/03/10 08:48:35;;;;;;;;;;;2.10;99.90;;;;;;5081520;28;20351;-51
2023/03/10 08:51:01;;;;;;;;;;;2.20;99.90;;;;;;5082104;28;19924;-53
2023/03/10 08:53:26;;;;;;;;;;;2.20;99.90;;;;;;5081322;28;20186;-55
2023/03/10 08:55:51;;;;;;;;;;;2.20;99.90;;;;;;5080701;28;19912;-52
2023/03/10 08:58:17;;;;;;;;;;;2.20;99.90;;;;;;5094047;28;19908;-55
2023/03/10 09:00:43;;;;;;;;;;;2.20;99.90;;;;;;5081044;28;19920;-52
2023/03/10 09:03:09;;;;;;;;;;;2.20;99.90;;;;;;5093871;28;20271;-50
2023/03/10 09:05:37;;;;;;;;;;;2.20;99.90;;;;;;5086687;28;20401;-52
2023/03/10 09:08:03;;;;;;;;;;;2.20;99.90;;;;;;5088471;28;20002;-51
2023/03/10 09:10:28;;;;;;;;;;;2.20;99.90;;;;;;5089991;28;19920;-52
2023/03/10 09:12:54;;;;;;;;;;;2.30;99.90;;;;;;5089716;28;19912;-52
2023/03/10 09:15:19;;;;;;;;;;;2.30;99.90;;;;;;5075960;28;20415;-52
2023/03/10 09:17:46;;;;;;;;;;;2.30;99.90;;;;;;5074520;28;19912;-54
2023/03/10 09:20:11;;;;;;;;;;;2.30;99.90;;;;;;5073790;28;19982;-53
2023/03/10 09:22:37;;;;;;;;;;;2.30;99.90;;;;;;5074702;28;20371;-53
2023/03/10 09:25:03;;;;;;;;;;;2.30;99.90;;;;;;5073992;28;19908;-54
2023/03/10 09:27:28;;;;;;;;;;;2.30;99.90;;;;;;5074306;28;19919;-53
2023/03/10 09:29:54;;;;;;;;;;;2.30;99.90;;;;;;5074396;28;19917;-51
2023/03/10 09:32:19;;;;;;;;;;;2.30;99.90;;;;;;5073810;28;20003;-52
2023/03/10 09:34:45;;;;;;;;;;;2.30;99.90;;;;;;5091238;28;19962;-55
2023/03/10 09:37:10;;;;;;;;;;;2.30;99.90;;;;;;5094374;28;20367;-53
2023/03/10 09:39:36;;;;;;;;;;;2.30;99.90;;;;;;5086195;28;19909;-52
2023/03/10 09:42:01;;;;;;;;;;;2.30;99.90;;;;;;5075387;28;19966;-52
2023/03/10 09:44:29;;;;;;;;;;;2.30;99.90;;;;;;5090099;28;19912;-52
2023/03/10 09:47:13;;;;;;;;;;;2.40;99.90;;;;;;5093772;28;20386;-56
2023/03/10 09:49:44;;;;;;;;;;;2.30;99.90;;;;;;5074030;28;19917;-54
2023/03/10 09:52:18;;;;;;;;;;;2.30;99.90;;;;;;5085922;28;20260;-52
2023/03/10 09:54:55;;;;;;;;;;;2.30;99.90;;;;;;5091505;28;19912;-51
2023/03/10 09:57:22;;;;;;;;;;;2.30;99.90;;;;;;5087028;28;19920;-54
2023/03/10 09:59:50;;;;;;;;;;;2.30;99.90;;;;;;5073597;28;19950;-52
2023/03/10 10:02:23;;;;;;;;;;;2.30;99.90;;;;;;5077208;28;21300;-53
2023/03/10 10:04:52;;;;;;;;;;;2.20;99.90;;;;;;5073923;28;19909;-49
2023/03/10 10:07:19;;;;;;;;;;;2.30;99.90;;;;;;5072801;28;20241;-46
2023/03/10 10:10:20;;;;;;;;;;;2.30;99.90;;;;;;5079392;28;19916;-47
2023/03/10 10:12:48;;;;;;;;;;;2.30;99.90;;;;;;4983220;28;19914;-46
2023/03/10 10:15:16;;;;;;;;;;;2.30;99.90;;;;;;5066705;28;19915;-47
2023/03/10 10:17:46;;;;;;;;;;;2.40;99.90;;;;;;5087980;28;19918;-48
2023/03/10 10:20:23;;;;;;;;;;;2.40;99.90;;;;;;5080984;28;19920;-48
2023/03/10 10:22:48;;;;;;;;;;;2.40;99.90;;;;;;5087912;28;20379;-48
2023/03/10 10:25:19;;;;;;;;;;;2.40;99.90;;;;;;5093599;28;19982;-51
2023/03/10 10:27:46;;;;;;;;;;;2.40;99.90;;;;;;5086511;28;20015;-51
2023/03/10 10:30:32;;;;;;;;;;;2.40;99.90;;;;;;5090751;28;20415;-52
2023/03/10 10:32:58;;;;;;;;;;;2.40;99.90;;;;;;5093781;28;19912;-50
2023/03/10 10:35:25;;;;;;;;;;;2.40;99.90;;;;;;5081993;28;19920;-52
2023/03/10 10:38:01;;;;;;;;;;;2.40;99.90;;;;;;5070581;28;20337;-54
2023/03/10 10:40:28;;;;;;;;;;;2.40;99.90;;;;;;5081744;28;19916;-53
2023/03/10 10:42:54;;;;;;;;;;;2.40;99.90;;;;;;5089181;28;19963;-52
2023/03/10 10:45:28;;;;;;;;;;;2.50;99.90;;;;;;5086420;28;20355;-51
2023/03/10 10:47:54;;;;;;;;;;;2.50;99.90;;;;;;5088678;28;19916;-52
2023/03/10 10:50:24;;;;;;;;;;;2.50;99.90;;;;;;5089046;28;19931;-54
2023/03/10 10:52:52;;;;;;;;;;;2.50;99.90;;;;;;5085758;28;19931;-53
2023/03/10 10:55:35;;;;;;;;;;;2.50;99.90;;;;;;5085405;28;19912;-54
2023/03/10 10:58:02;;;;;;;;;;;2.50;99.90;;;;;;5087359;28;19916;-55
2023/03/10 11:00:28;;;;;;;;;;;2.50;99.90;;;;;;5082904;28;19927;-54
2023/03/10 11:02:54;;;;;;;;;;;2.50;99.90;;;;;;5085231;28;19913;-57
2023/03/10 11:05:36;;;;;;;;;;;2.40;99.90;;;;;;5084709;28;19915;-54
2023/03/10 11:08:18;;;;;;;;;;;2.40;99.90;;;;;;5085811;28;20378;-51
2023/03/10 11:10:48;;;;;;;;;;;2.40;99.90;;;;;;5077478;28;19936;-53
2023/03/10 11:13:13;;;;;;;;;;;2.30;99.90;;;;;;5086898;28;19908;-55
2023/03/10 11:15:51;;;;;;;;;;;2.30;99.90;;;;;;5084090;28;19919;-56
2023/03/10 11:18:23;;;;;;;;;;;2.30;99.90;;;;;;5083552;28;19924;-51
2023/03/10 11:20:53;;;;;;;;;;;2.30;99.90;;;;;;5086992;28;19973;-52
2023/03/10 11:23:22;;;;;;;;;;;2.40;99.90;;;;;;5091079;28;19916;-55
2023/03/10 11:25:59;;;;;;;;;;;2.40;99.90;;;;;;5069493;28;20275;-53
2023/03/10 11:28:47;;;;;;;;;;;2.40;99.90;;;;;;5061456;28;19917;-53
2023/03/10 11:31:16;;;;;;;;;;;2.40;99.90;;;;;;5043772;28;19917;-53
2023/03/10 11:33:44;;;;;;;;;;;2.40;99.90;;;;;;5051929;28;19913;-52
2023/03/10 11:36:18;;;;;;;;;;;2.40;99.90;;;;;;5052714;28;19909;-53
2023/03/10 11:38:47;;;;;;;;;;;2.40;99.90;;;;;;5051089;28;19916;-53
2023/03/10 11:41:18;;;;;;;;;;;2.40;99.90;;;;;;5051719;28;19909;-53
2023/03/10 11:43:47;;;;;;;;;;;2.40;99.90;;;;;;5050888;28;19909;-54
2023/03/10 11:46:32;;;;;;;;;;;2.40;99.90;;;;;;5050555;28;19916;-54
2023/03/10 11:49:01;;;;;;;;;;;2.40;99.90;;;;;;5041120;28;19920;-54
2023/03/10 11:51:27;;;;;;;;;;;2.40;99.90;;;;;;5062948;28;20414;-54
2023/03/10 11:53:54;;;;;;;;;;;2.40;99.90;;;;;;5071711;28;19913;-54
2023/03/10 11:56:20;;;;;;;;;;;2.40;99.90;;;;;;5072161;28;20011;-54
2023/03/10 11:58:50;;;;;;;;;;;2.40;99.90;;;;;;5072037;28;19993;-55
2023/03/10 12:01:22;;;;;;;;;;;2.40;99.90;;;;;;5091822;28;19994;-56
2023/03/10 12:03:59;;;;;;;;;;;2.40;99.90;;;;;;5092355;28;19991;-53
2023/03/10 12:06:33;;;;;;;;;;;2.40;99.90;;;;;;5091876;28;19915;-53
2023/03/10 12:09:00;;;;;;;;;;;2.40;99.90;;;;;;5092177;28;19908;-54
2023/03/10 12:11:25;;;;;;;;;;;2.50;99.90;;;;;;5092093;28;19916;-52
2023/03/10 12:13:55;;;;;;;;;;;2.40;99.90;;;;;;5091553;28;20373;-55
2023/03/10 12:16:23;;;;;;;;;;;2.40;99.90;;;;;;5092094;28;19915;-52
2023/03/10 12:18:48;;;;;;;;;;;2.40;99.90;;;;;;5080818;28;19912;-53
2023/03/10 12:21:14;;;;;;;;;;;2.40;99.90;;;;;;5074675;28;20998;-54
2023/03/10 12:23:41;;;;;;;;;;;2.40;99.90;;;;;;5079337;28;19963;-52
2023/03/10 12:26:06;;;;;;;;;;;2.40;99.90;;;;;;5087738;28;19989;-54
2023/03/10 12:28:32;;;;;;;;;;;2.40;99.90;;;;;;5087659;28;20341;-53
2023/03/10 12:30:59;;;;;;;;;;;2.40;99.90;;;;;;5084120;28;19921;-52
2023/03/10 12:33:37;;;;;;;;;;;2.40;99.90;;;;;;5071611;28;19920;-52
2023/03/10 12:36:06;;;;;;;;;;;2.40;99.90;;;;;;5071464;28;19966;-53
2023/03/10 12:38:45;;;;;;;;;;;2.40;99.90;;;;;;5082121;28;19912;-53
2023/03/10 12:41:26;;;;;;;;;;;2.50;99.90;;;;;;5094994;28;19974;-50
2023/03/10 12:43:53;;;;;;;;;;;2.40;99.90;;;;;;5075191;28;20003;-52
2023/03/10 12:46:38;;;;;;;;;;;2.50;99.90;;;;;;5074978;28;19909;-53
2023/03/10 12:49:06;;;;;;;;;;;2.60;99.90;;;;;;5074659;28;19908;-54
2023/03/10 12:51:35;;;;;;;;;;;2.70;99.90;;;;;;5074902;28;19920;-54
2023/03/10 12:54:30;;;;;;;;;;;2.60;99.90;;;;;;5075133;28;19908;-54
2023/03/10 12:57:14;;;;;;;;;;;2.70;99.90;;;;;;5050046;28;19913;-53
2023/03/10 12:59:42;;;;;;;;;;;2.70;99.90;;;;;;5079329;28;19921;-54
2023/03/10 13:02:23;;;;;;;;;;;2.70;99.90;;;;;;5074737;28;19978;-53
2023/03/10 13:04:48;;;;;;;;;;;2.60;99.90;;;;;;5074612;28;19917;-49
2023/03/10 13:07:15;;;;;;;;;;;2.70;99.90;;;;;;5079687;28;19916;-47
2023/03/10 13:09:42;;;;;;;;;;;2.60;99.90;;;;;;5085684;28;20366;-48
2023/03/10 13:12:18;;;;;;;;;;;2.60;99.90;;;;;;5084565;28;20705;-48
2023/03/10 13:14:44;;;;;;;;;;;2.60;99.90;;;;;;5086096;28;19909;-47
2023/03/10 13:17:23;;;;;;;;;;;2.60;99.90;;;;;;5074234;28;19909;-48
2023/03/10 13:19:56;;;;;;;;;;;2.60;99.90;;;;;;5074529;28;19999;-46
2023/03/10 13:22:22;;;;;;;;;;;2.70;99.90;;;;;;5074028;28;19913;-47
2023/03/10 13:24:55;;;;;;;;;;;2.60;99.90;;;;;;5098782;28;19918;-46
2023/03/10 13:27:22;;;;;;;;;;;2.60;99.90;;;;;;5112152;28;19911;-49
2023/03/10 13:29:54;;;;;;;;;;;2.60;99.90;;;;;;5078817;28;19920;-52
2023/03/10 13:32:20;;;;;;;;;;;2.50;99.90;;;;;;5074695;28;19916;-50
2023/03/10 13:34:45;;;;;;;;;;;2.50;99.90;;;;;;5074238;28;20006;-51
2023/03/10 13:37:11;;;;;;;;;;;2.50;99.90;;;;;;5074161;28;19919;-51
2023/03/10 13:39:37;;;;;;;;;;;2.50;99.90;;;;;;5079316;28;19948;-52
2023/03/10 13:42:04;;;;;;;;;;;2.40;99.90;;;;;;5080074;28;19913;-52
2023/03/10 13:44:36;;;;;;;;;;;2.50;99.90;;;;;;5073737;28;20390;-52
2023/03/10 13:47:03;;;;;;;;;;;2.40;99.90;;;;;;5073448;28;19908;-53
2023/03/10 13:49:35;;;;;;;;;;;2.30;99.90;;;;;;5084682;28;19915;-52
2023/03/10 13:52:05;;;;;;;;;;;2.30;99.90;;;;;;5093370;28;19916;-53
2023/03/10 13:54:34;;;;;;;;;;;2.30;99.90;;;;;;5091097;28;19929;-56
2023/03/10 13:57:10;;;;;;;;;;;2.30;99.90;;;;;;5078854;28;19912;-53
2023/03/10 13:59:36;;;;;;;;;;;2.30;99.90;;;;;;5078792;28;19982;-53
2023/03/10 14:02:02;;;;;;;;;;;2.20;99.90;;;;;;5088131;28;19922;-54
2023/03/10 14:04:38;;;;;;;;;;;2.20;99.90;;;;;;5086114;28;19916;-50
2023/03/10 14:07:17;;;;;;;;;;;2.20;99.90;;;;;;5093583;28;19908;-48
2023/03/10 14:09:43;;;;;;;;;;;2.20;99.90;;;;;;5093904;28;19959;-49
2023/03/10 14:12:10;;;;;;;;;;;2.10;99.90;;;;;;5089908;28;20359;-50
2023/03/10 14:14:37;;;;;;;;;;;2.10;99.90;;;;;;5091138;28;20358;-50
2023/03/10 14:17:07;;;;;;;;;;;2.10;99.90;;;;;;5103415;28;20166;-53
2023/03/10 14:19:35;;;;;;;;;;;2.10;99.90;;;;;;5101445;28;19912;-51
2023/03/10 14:22:00;;;;;;;;;;;2.10;99.90;;;;;;5098543;28;20379;-53
2023/03/10 14:24:26;;;;;;;;;;;2.20;99.90;;;;;;5093598;28;20001;-52
2023/03/10 14:26:53;;;;;;;;;;;2.10;99.90;;;;;;5075782;28;20243;-48
2023/03/10 14:29:18;;;;;;;;;;;2.20;99.90;;;;;;5091428;28;20343;-50
2023/03/10 14:31:50;;;;;;;;;;;2.20;99.90;;;;;;5082651;28;19919;-52
2023/03/10 14:34:16;;;;;;;;;;;2.20;99.90;;;;;;5097712;28;19951;-50